sensor_id;sensor_type;location;lat;lon;timestamp;temperature;humidity
10314;DHT22;5202;49.138;10.090;2023-05-31T00:00:18;14.70;58.10
10314;DHT22;5202;49.138;10.090;2023-05-31T00:02:46;14.70;58.10
10314;DHT22;5202;49.138;10.090;2023-05-31T00:05:16;14.70;58.00
10314;DHT22;5202;49.138;10.090;2023-05-31T00:07:44;14.70;58.00
10314;DHT22;5202;49.138;10.090;2023-05-31T00:10:13;14.70;57.80
10314;DHT22;5202;49.138;10.090;2023-05-31T00:12:41;14.60;57.70
10314;DHT22;5202;49.138;10.090;2023-05-31T00:15:10;14.60;57.90
10314;DHT22;5202;49.138;10.090;2023-05-31T00:17:40;14.60;57.80
10314;DHT22;5202;49.138;10.090;2023-05-31T00:20:11;14.60;57.60
10314;DHT22;5202;49.138;10.090;2023-05-31T00:22:40;14.60;57.50
10314;DHT22;5202;49.138;10.090;2023-05-31T00:25:08;14.60;57.50
10314;DHT22;5202;49.138;10.090;2023-05-31T00:27:36;14.60;57.50
10314;DHT22;5202;49.138;10.090;2023-05-31T00:30:06;14.60;57.80
10314;DHT22;5202;49.138;10.090;2023-05-31T00:32:35;14.60;57.50
10314;DHT22;5202;49.138;10.090;2023-05-31T00:35:05;14.60;57.40
10314;DHT22;5202;49.138;10.090;2023-05-31T00:37:34;14.60;57.60
10314;DHT22;5202;49.138;10.090;2023-05-31T00:40:05;14.50;57.50
10314;DHT22;5202;49.138;10.090;2023-05-31T00:42:34;14.50;57.70
10314;DHT22;5202;49.138;10.090;2023-05-31T00:45:04;14.50;57.70
10314;DHT22;5202;49.138;10.090;2023-05-31T00:47:34;14.40;58.30
10314;DHT22;5202;49.138;10.090;2023-05-31T00:50:06;14.40;58.10
10314;DHT22;5202;49.138;10.090;2023-05-31T00:52:35;14.30;58.30
10314;DHT22;5202;49.138;10.090;2023-05-31T00:55:04;14.20;58.50
10314;DHT22;5202;49.138;10.090;2023-05-31T00:57:33;14.20;58.50
10314;DHT22;5202;49.138;10.090;2023-05-31T01:00:04;14.20;58.60
10314;DHT22;5202;49.138;10.090;2023-05-31T01:02:35;14.30;58.70
10314;DHT22;5202;49.138;10.090;2023-05-31T01:05:07;14.20;58.60
10314;DHT22;5202;49.138;10.090;2023-05-31T01:07:36;14.20;58.70
10314;DHT22;5202;49.138;10.090;2023-05-31T01:10:06;14.20;58.90
10314;DHT22;5202;49.138;10.090;2023-05-31T01:12:41;14.10;58.70
10314;DHT22;5202;49.138;10.090;2023-05-31T01:15:19;14.10;58.90
10314;DHT22;5202;49.138;10.090;2023-05-31T01:17:54;14.10;59.00
10314;DHT22;5202;49.138;10.090;2023-05-31T01:20:32;14.20;58.90
10314;DHT22;5202;49.138;10.090;2023-05-31T01:23:30;14.10;58.90
10314;DHT22;5202;49.138;10.090;2023-05-31T01:26:33;14.10;58.80
10314;DHT22;5202;49.138;10.090;2023-05-31T01:29:06;14.10;58.90
10314;DHT22;5202;49.138;10.090;2023-05-31T01:31:37;14.10;59.10
10314;DHT22;5202;49.138;10.090;2023-05-31T01:34:06;14.10;59.30
10314;DHT22;5202;49.138;10.090;2023-05-31T01:36:35;14.10;59.20
10314;DHT22;5202;49.138;10.090;2023-05-31T01:39:03;14.10;59.20
10314;DHT22;5202;49.138;10.090;2023-05-31T01:41:37;14.00;59.20
10314;DHT22;5202;49.138;10.090;2023-05-31T01:44:07;14.00;59.30
10314;DHT22;5202;49.138;10.090;2023-05-31T01:46:37;13.90;59.30
10314;DHT22;5202;49.138;10.090;2023-05-31T01:49:08;13.90;59.50
10314;DHT22;5202;49.138;10.090;2023-05-31T01:51:37;13.90;59.40
10314;DHT22;5202;49.138;10.090;2023-05-31T01:54:08;13.80;59.50
10314;DHT22;5202;49.138;10.090;2023-05-31T01:56:39;13.80;59.90
10314;DHT22;5202;49.138;10.090;2023-05-31T01:59:08;13.80;59.90
10314;DHT22;5202;49.138;10.090;2023-05-31T02:01:38;13.80;59.90
10314;DHT22;5202;49.138;10.090;2023-05-31T02:04:07;13.80;60.00
10314;DHT22;5202;49.138;10.090;2023-05-31T02:06:36;13.90;60.20
10314;DHT22;5202;49.138;10.090;2023-05-31T02:09:07;13.80;60.20
10314;DHT22;5202;49.138;10.090;2023-05-31T02:11:39;13.80;60.60
10314;DHT22;5202;49.138;10.090;2023-05-31T02:14:07;13.80;60.60
10314;DHT22;5202;49.138;10.090;2023-05-31T02:16:36;13.70;60.60
10314;DHT22;5202;49.138;10.090;2023-05-31T02:19:04;13.70;60.80
10314;DHT22;5202;49.138;10.090;2023-05-31T02:21:33;13.70;61.00
10314;DHT22;5202;49.138;10.090;2023-05-31T02:24:02;13.70;61.20
10314;DHT22;5202;49.138;10.090;2023-05-31T02:26:32;13.50;61.40
10314;DHT22;5202;49.138;10.090;2023-05-31T02:29:02;13.50;61.70
10314;DHT22;5202;49.138;10.090;2023-05-31T02:31:30;13.40;61.90
10314;DHT22;5202;49.138;10.090;2023-05-31T02:33:58;13.40;61.70
10314;DHT22;5202;49.138;10.090;2023-05-31T02:36:27;13.40;61.80
10314;DHT22;5202;49.138;10.090;2023-05-31T02:38:55;13.40;61.60
10314;DHT22;5202;49.138;10.090;2023-05-31T02:41:24;13.40;61.60
10314;DHT22;5202;49.138;10.090;2023-05-31T02:43:52;13.40;61.60
10314;DHT22;5202;49.138;10.090;2023-05-31T02:46:23;13.40;61.70
10314;DHT22;5202;49.138;10.090;2023-05-31T02:48:52;13.40;62.00
10314;DHT22;5202;49.138;10.090;2023-05-31T02:51:21;13.30;62.00
10314;DHT22;5202;49.138;10.090;2023-05-31T02:54:12;13.30;62.00
10314;DHT22;5202;49.138;10.090;2023-05-31T02:56:40;13.30;61.90
10314;DHT22;5202;49.138;10.090;2023-05-31T02:59:18;13.20;61.90
10314;DHT22;5202;49.138;10.090;2023-05-31T03:01:52;13.10;61.70
10314;DHT22;5202;49.138;10.090;2023-05-31T03:04:59;13.10;61.80
10314;DHT22;5202;49.138;10.090;2023-05-31T03:07:29;13.10;61.90
10314;DHT22;5202;49.138;10.090;2023-05-31T03:09:57;13.10;62.00
10314;DHT22;5202;49.138;10.090;2023-05-31T03:12:26;13.00;61.70
10314;DHT22;5202;49.138;10.090;2023-05-31T03:14:54;13.00;61.90
10314;DHT22;5202;49.138;10.090;2023-05-31T03:17:24;13.00;62.00
10314;DHT22;5202;49.138;10.090;2023-05-31T03:19:53;13.00;62.00
10314;DHT22;5202;49.138;10.090;2023-05-31T03:22:21;13.00;62.10
10314;DHT22;5202;49.138;10.090;2023-05-31T03:24:51;13.00;62.20
10314;DHT22;5202;49.138;10.090;2023-05-31T03:27:19;13.00;62.40
10314;DHT22;5202;49.138;10.090;2023-05-31T03:29:48;13.00;62.50
10314;DHT22;5202;49.138;10.090;2023-05-31T03:32:16;12.90;62.40
10314;DHT22;5202;49.138;10.090;2023-05-31T03:34:46;12.90;62.70
10314;DHT22;5202;49.138;10.090;2023-05-31T03:37:15;12.90;62.70
10314;DHT22;5202;49.138;10.090;2023-05-31T03:39:55;12.90;62.90
10314;DHT22;5202;49.138;10.090;2023-05-31T03:42:28;12.90;62.80
10314;DHT22;5202;49.138;10.090;2023-05-31T03:44:58;12.90;62.80
10314;DHT22;5202;49.138;10.090;2023-05-31T03:47:28;12.90;62.80
10314;DHT22;5202;49.138;10.090;2023-05-31T03:49:58;12.90;63.10
10314;DHT22;5202;49.138;10.090;2023-05-31T03:52:27;12.90;63.60
10314;DHT22;5202;49.138;10.090;2023-05-31T03:54:55;12.90;63.40
10314;DHT22;5202;49.138;10.090;2023-05-31T03:57:23;12.90;63.70
10314;DHT22;5202;49.138;10.090;2023-05-31T03:59:52;12.90;64.00
10314;DHT22;5202;49.138;10.090;2023-05-31T04:02:20;12.90;64.10
10314;DHT22;5202;49.138;10.090;2023-05-31T04:04:49;12.90;64.00
10314;DHT22;5202;49.138;10.090;2023-05-31T04:07:19;12.90;64.30
10314;DHT22;5202;49.138;10.090;2023-05-31T04:09:48;12.90;64.30
10314;DHT22;5202;49.138;10.090;2023-05-31T04:12:17;13.00;64.50
10314;DHT22;5202;49.138;10.090;2023-05-31T04:14:46;13.00;64.50
10314;DHT22;5202;49.138;10.090;2023-05-31T04:17:14;13.00;64.70
10314;DHT22;5202;49.138;10.090;2023-05-31T04:19:44;13.00;64.80
10314;DHT22;5202;49.138;10.090;2023-05-31T04:22:12;13.10;64.90
10314;DHT22;5202;49.138;10.090;2023-05-31T04:24:42;13.10;64.70
10314;DHT22;5202;49.138;10.090;2023-05-31T04:27:15;13.00;65.00
10314;DHT22;5202;49.138;10.090;2023-05-31T04:29:49;13.00;65.00
10314;DHT22;5202;49.138;10.090;2023-05-31T04:32:18;13.00;64.90
10314;DHT22;5202;49.138;10.090;2023-05-31T04:34:49;13.10;65.00
10314;DHT22;5202;49.138;10.090;2023-05-31T04:37:27;13.10;65.30
10314;DHT22;5202;49.138;10.090;2023-05-31T04:39:59;13.20;65.20
10314;DHT22;5202;49.138;10.090;2023-05-31T04:42:32;13.30;64.90
10314;DHT22;5202;49.138;10.090;2023-05-31T04:45:01;13.30;65.00
10314;DHT22;5202;49.138;10.090;2023-05-31T04:47:37;13.40;65.00
10314;DHT22;5202;49.138;10.090;2023-05-31T04:50:05;13.40;64.90
10314;DHT22;5202;49.138;10.090;2023-05-31T04:52:34;13.40;64.80
10314;DHT22;5202;49.138;10.090;2023-05-31T04:55:09;13.50;64.60
10314;DHT22;5202;49.138;10.090;2023-05-31T04:57:37;13.60;64.60
10314;DHT22;5202;49.138;10.090;2023-05-31T05:00:09;13.70;64.90
10314;DHT22;5202;49.138;10.090;2023-05-31T05:02:48;13.70;64.80
10314;DHT22;5202;49.138;10.090;2023-05-31T05:05:17;13.80;64.80
10314;DHT22;5202;49.138;10.090;2023-05-31T05:07:46;13.90;65.00
10314;DHT22;5202;49.138;10.090;2023-05-31T05:10:15;13.90;64.70
10314;DHT22;5202;49.138;10.090;2023-05-31T05:12:44;14.00;64.70
10314;DHT22;5202;49.138;10.090;2023-05-31T05:15:12;14.10;64.50
10314;DHT22;5202;49.138;10.090;2023-05-31T05:17:41;14.10;64.50
10314;DHT22;5202;49.138;10.090;2023-05-31T05:20:12;14.30;64.90
10314;DHT22;5202;49.138;10.090;2023-05-31T05:22:42;14.40;64.70
10314;DHT22;5202;49.138;10.090;2023-05-31T05:25:19;14.50;65.00
10314;DHT22;5202;49.138;10.090;2023-05-31T05:27:49;14.50;64.30
10314;DHT22;5202;49.138;10.090;2023-05-31T05:30:18;14.60;64.00
10314;DHT22;5202;49.138;10.090;2023-05-31T05:32:48;14.70;64.50
10314;DHT22;5202;49.138;10.090;2023-05-31T05:35:18;14.70;64.10
10314;DHT22;5202;49.138;10.090;2023-05-31T05:37:47;14.70;63.40
10314;DHT22;5202;49.138;10.090;2023-05-31T05:40:16;14.80;64.10
10314;DHT22;5202;49.138;10.090;2023-05-31T05:42:47;14.80;64.60
10314;DHT22;5202;49.138;10.090;2023-05-31T05:45:16;14.90;64.60
10314;DHT22;5202;49.138;10.090;2023-05-31T05:47:44;15.00;64.10
10314;DHT22;5202;49.138;10.090;2023-05-31T05:50:17;15.10;63.70
10314;DHT22;5202;49.138;10.090;2023-05-31T05:52:45;15.10;63.70
10314;DHT22;5202;49.138;10.090;2023-05-31T05:55:13;15.30;63.60
10314;DHT22;5202;49.138;10.090;2023-05-31T05:57:42;15.40;64.00
10314;DHT22;5202;49.138;10.090;2023-05-31T06:00:38;15.50;64.10
10314;DHT22;5202;49.138;10.090;2023-05-31T06:03:07;15.70;63.90
10314;DHT22;5202;49.138;10.090;2023-05-31T06:05:36;15.80;63.10
10314;DHT22;5202;49.138;10.090;2023-05-31T06:08:05;15.90;63.20
10314;DHT22;5202;49.138;10.090;2023-05-31T06:10:33;16.10;63.20
10314;DHT22;5202;49.138;10.090;2023-05-31T06:13:02;16.20;63.00
10314;DHT22;5202;49.138;10.090;2023-05-31T06:15:32;16.20;62.20
10314;DHT22;5202;49.138;10.090;2023-05-31T06:18:02;16.30;61.60
10314;DHT22;5202;49.138;10.090;2023-05-31T06:20:31;16.30;61.50
10314;DHT22;5202;49.138;10.090;2023-05-31T06:23:00;16.40;61.50
10314;DHT22;5202;49.138;10.090;2023-05-31T06:25:28;16.50;61.90
10314;DHT22;5202;49.138;10.090;2023-05-31T06:27:57;16.60;61.80
10314;DHT22;5202;49.138;10.090;2023-05-31T06:30:26;16.70;61.40
10314;DHT22;5202;49.138;10.090;2023-05-31T06:32:55;16.90;61.90
10314;DHT22;5202;49.138;10.090;2023-05-31T06:35:26;17.00;61.40
10314;DHT22;5202;49.138;10.090;2023-05-31T06:37:54;17.10;60.90
10314;DHT22;5202;49.138;10.090;2023-05-31T06:40:22;17.20;59.90
10314;DHT22;5202;49.138;10.090;2023-05-31T06:42:51;17.20;59.80
10314;DHT22;5202;49.138;10.090;2023-05-31T06:45:51;17.30;60.40
10314;DHT22;5202;49.138;10.090;2023-05-31T06:48:20;17.50;59.60
10314;DHT22;5202;49.138;10.090;2023-05-31T06:51:16;17.60;59.70
10314;DHT22;5202;49.138;10.090;2023-05-31T06:54:01;17.80;60.60
10314;DHT22;5202;49.138;10.090;2023-05-31T06:56:33;17.90;58.80
10314;DHT22;5202;49.138;10.090;2023-05-31T06:59:02;18.00;59.10
10314;DHT22;5202;49.138;10.090;2023-05-31T07:01:30;18.10;59.40
10314;DHT22;5202;49.138;10.090;2023-05-31T07:03:59;18.10;58.70
10314;DHT22;5202;49.138;10.090;2023-05-31T07:06:28;18.30;59.80
10314;DHT22;5202;49.138;10.090;2023-05-31T07:08:57;18.40;59.20
10314;DHT22;5202;49.138;10.090;2023-05-31T07:11:34;18.50;58.90
10314;DHT22;5202;49.138;10.090;2023-05-31T07:14:03;18.60;57.50
10314;DHT22;5202;49.138;10.090;2023-05-31T07:16:32;18.70;58.10
10314;DHT22;5202;49.138;10.090;2023-05-31T07:19:01;18.80;58.00
10314;DHT22;5202;49.138;10.090;2023-05-31T07:21:30;18.80;57.20
10314;DHT22;5202;49.138;10.090;2023-05-31T07:23:59;18.80;56.20
10314;DHT22;5202;49.138;10.090;2023-05-31T07:26:27;18.90;56.60
10314;DHT22;5202;49.138;10.090;2023-05-31T07:28:56;19.00;57.50
10314;DHT22;5202;49.138;10.090;2023-05-31T07:31:24;19.00;56.00
10314;DHT22;5202;49.138;10.090;2023-05-31T07:33:53;19.00;55.80
10314;DHT22;5202;49.138;10.090;2023-05-31T07:36:22;19.00;54.90
10314;DHT22;5202;49.138;10.090;2023-05-31T07:38:53;19.00;56.30
10314;DHT22;5202;49.138;10.090;2023-05-31T07:41:21;19.20;56.00
10314;DHT22;5202;49.138;10.090;2023-05-31T07:43:51;19.20;55.00
10314;DHT22;5202;49.138;10.090;2023-05-31T07:46:22;19.40;56.00
10314;DHT22;5202;49.138;10.090;2023-05-31T07:48:50;19.50;56.60
10314;DHT22;5202;49.138;10.090;2023-05-31T07:51:21;19.70;54.60
10314;DHT22;5202;49.138;10.090;2023-05-31T07:53:49;19.80;54.90
10314;DHT22;5202;49.138;10.090;2023-05-31T07:56:18;19.80;54.90
10314;DHT22;5202;49.138;10.090;2023-05-31T07:58:48;19.90;54.10
10314;DHT22;5202;49.138;10.090;2023-05-31T08:01:16;20.00;55.20
10314;DHT22;5202;49.138;10.090;2023-05-31T08:03:45;20.00;54.90
10314;DHT22;5202;49.138;10.090;2023-05-31T08:06:20;20.10;53.60
10314;DHT22;5202;49.138;10.090;2023-05-31T08:08:48;20.10;54.40
10314;DHT22;5202;49.138;10.090;2023-05-31T08:11:18;20.20;54.00
10314;DHT22;5202;49.138;10.090;2023-05-31T08:13:47;20.30;54.80
10314;DHT22;5202;49.138;10.090;2023-05-31T08:16:15;20.40;53.50
10314;DHT22;5202;49.138;10.090;2023-05-31T08:18:43;20.40;54.50
10314;DHT22;5202;49.138;10.090;2023-05-31T08:21:11;20.60;54.30
10314;DHT22;5202;49.138;10.090;2023-05-31T08:23:41;20.60;53.70
10314;DHT22;5202;49.138;10.090;2023-05-31T08:26:10;20.70;55.00
10314;DHT22;5202;49.138;10.090;2023-05-31T08:28:40;20.70;53.50
10314;DHT22;5202;49.138;10.090;2023-05-31T08:31:08;20.80;54.10
10314;DHT22;5202;49.138;10.090;2023-05-31T08:33:37;20.90;54.10
10314;DHT22;5202;49.138;10.090;2023-05-31T08:36:07;20.90;53.00
10314;DHT22;5202;49.138;10.090;2023-05-31T08:38:35;20.90;53.50
10314;DHT22;5202;49.138;10.090;2023-05-31T08:41:04;21.00;52.80
10314;DHT22;5202;49.138;10.090;2023-05-31T08:43:33;21.00;52.40
10314;DHT22;5202;49.138;10.090;2023-05-31T08:46:04;21.00;52.40
10314;DHT22;5202;49.138;10.090;2023-05-31T08:48:37;21.10;52.40
10314;DHT22;5202;49.138;10.090;2023-05-31T08:51:08;21.20;52.70
10314;DHT22;5202;49.138;10.090;2023-05-31T08:53:37;21.30;53.50
10314;DHT22;5202;49.138;10.090;2023-05-31T08:56:06;21.30;52.90
10314;DHT22;5202;49.138;10.090;2023-05-31T08:58:42;21.40;51.50
10314;DHT22;5202;49.138;10.090;2023-05-31T09:01:12;21.40;51.80
10314;DHT22;5202;49.138;10.090;2023-05-31T09:03:42;21.50;52.10
10314;DHT22;5202;49.138;10.090;2023-05-31T09:06:11;21.70;53.10
10314;DHT22;5202;49.138;10.090;2023-05-31T09:08:39;21.80;51.80
10314;DHT22;5202;49.138;10.090;2023-05-31T09:11:08;21.80;52.00
10314;DHT22;5202;49.138;10.090;2023-05-31T09:13:39;21.80;52.10
10314;DHT22;5202;49.138;10.090;2023-05-31T09:16:09;21.90;53.30
10314;DHT22;5202;49.138;10.090;2023-05-31T09:18:39;21.90;51.00
10314;DHT22;5202;49.138;10.090;2023-05-31T09:21:08;21.90;49.40
10314;DHT22;5202;49.138;10.090;2023-05-31T09:23:37;21.80;51.50
10314;DHT22;5202;49.138;10.090;2023-05-31T09:26:06;22.00;52.20
10314;DHT22;5202;49.138;10.090;2023-05-31T09:28:35;22.00;49.10
10314;DHT22;5202;49.138;10.090;2023-05-31T09:31:05;22.00;50.40
10314;DHT22;5202;49.138;10.090;2023-05-31T09:33:39;22.10;50.40
10314;DHT22;5202;49.138;10.090;2023-05-31T09:36:11;22.20;53.00
10314;DHT22;5202;49.138;10.090;2023-05-31T09:38:41;22.40;52.60
10314;DHT22;5202;49.138;10.090;2023-05-31T09:41:13;22.50;51.30
10314;DHT22;5202;49.138;10.090;2023-05-31T09:43:43;22.60;50.00
10314;DHT22;5202;49.138;10.090;2023-05-31T09:46:13;22.70;53.00
10314;DHT22;5202;49.138;10.090;2023-05-31T09:48:44;22.80;50.90
10314;DHT22;5202;49.138;10.090;2023-05-31T09:51:13;22.90;50.90
10314;DHT22;5202;49.138;10.090;2023-05-31T09:53:43;22.90;51.00
10314;DHT22;5202;49.138;10.090;2023-05-31T09:56:17;22.90;52.40
10314;DHT22;5202;49.138;10.090;2023-05-31T09:58:48;23.00;48.60
10314;DHT22;5202;49.138;10.090;2023-05-31T10:01:18;22.90;46.90
10314;DHT22;5202;49.138;10.090;2023-05-31T10:03:49;22.90;48.40
10314;DHT22;5202;49.138;10.090;2023-05-31T10:06:18;22.90;48.60
10314;DHT22;5202;49.138;10.090;2023-05-31T10:08:49;23.00;46.30
10314;DHT22;5202;49.138;10.090;2023-05-31T10:11:26;22.90;46.40
10314;DHT22;5202;49.138;10.090;2023-05-31T10:14:01;22.90;47.60
10314;DHT22;5202;49.138;10.090;2023-05-31T10:16:35;23.00;48.70
10314;DHT22;5202;49.138;10.090;2023-05-31T10:19:09;23.00;48.60
10314;DHT22;5202;49.138;10.090;2023-05-31T10:21:42;23.20;50.10
10314;DHT22;5202;49.138;10.090;2023-05-31T10:24:16;23.30;47.00
10314;DHT22;5202;49.138;10.090;2023-05-31T10:26:55;23.40;47.60
10314;DHT22;5202;49.138;10.090;2023-05-31T10:29:31;23.40;47.60
10314;DHT22;5202;49.138;10.090;2023-05-31T10:32:06;23.40;45.70
10314;DHT22;5202;49.138;10.090;2023-05-31T10:34:40;23.40;46.80
10314;DHT22;5202;49.138;10.090;2023-05-31T10:37:09;23.50;45.20
10314;DHT22;5202;49.138;10.090;2023-05-31T10:39:43;23.60;45.40
10314;DHT22;5202;49.138;10.090;2023-05-31T10:42:20;23.60;46.10
10314;DHT22;5202;49.138;10.090;2023-05-31T10:44:57;23.70;46.70
10314;DHT22;5202;49.138;10.090;2023-05-31T10:47:33;23.80;45.90
10314;DHT22;5202;49.138;10.090;2023-05-31T10:50:06;23.80;45.90
10314;DHT22;5202;49.138;10.090;2023-05-31T10:52:35;23.70;45.60
10314;DHT22;5202;49.138;10.090;2023-05-31T10:55:16;23.70;43.30
10314;DHT22;5202;49.138;10.090;2023-05-31T10:57:50;23.90;45.80
10314;DHT22;5202;49.138;10.090;2023-05-31T11:00:21;24.00;43.60
10314;DHT22;5202;49.138;10.090;2023-05-31T11:02:51;24.00;42.40
10314;DHT22;5202;49.138;10.090;2023-05-31T11:05:24;24.10;44.50
10314;DHT22;5202;49.138;10.090;2023-05-31T11:07:54;24.10;43.30
10314;DHT22;5202;49.138;10.090;2023-05-31T11:10:27;24.20;45.70
10314;DHT22;5202;49.138;10.090;2023-05-31T11:13:01;24.20;45.40
10314;DHT22;5202;49.138;10.090;2023-05-31T11:15:38;24.30;47.20
10314;DHT22;5202;49.138;10.090;2023-05-31T11:18:08;24.40;42.90
10314;DHT22;5202;49.138;10.090;2023-05-31T11:20:39;24.50;42.00
10314;DHT22;5202;49.138;10.090;2023-05-31T11:23:24;24.50;43.50
10314;DHT22;5202;49.138;10.090;2023-05-31T11:26:09;24.60;43.70
10314;DHT22;5202;49.138;10.090;2023-05-31T11:28:55;24.70;45.70
10314;DHT22;5202;49.138;10.090;2023-05-31T11:31:59;25.00;44.90
10314;DHT22;5202;49.138;10.090;2023-05-31T11:34:31;25.10;43.70
10314;DHT22;5202;49.138;10.090;2023-05-31T11:37:03;25.20;42.10
10314;DHT22;5202;49.138;10.090;2023-05-31T11:39:32;25.20;43.60
10314;DHT22;5202;49.138;10.090;2023-05-31T11:42:02;25.00;42.00
10314;DHT22;5202;49.138;10.090;2023-05-31T11:44:32;25.00;45.40
10314;DHT22;5202;49.138;10.090;2023-05-31T11:47:03;25.10;41.10
10314;DHT22;5202;49.138;10.090;2023-05-31T11:49:33;25.10;41.70
10314;DHT22;5202;49.138;10.090;2023-05-31T11:52:03;25.10;43.70
10314;DHT22;5202;49.138;10.090;2023-05-31T11:54:32;25.30;42.90
10314;DHT22;5202;49.138;10.090;2023-05-31T11:57:03;25.50;42.80
10314;DHT22;5202;49.138;10.090;2023-05-31T11:59:34;25.60;40.70
10314;DHT22;5202;49.138;10.090;2023-05-31T12:02:04;25.70;40.50
10314;DHT22;5202;49.138;10.090;2023-05-31T12:04:35;25.90;44.20
10314;DHT22;5202;49.138;10.090;2023-05-31T12:07:12;26.00;42.10
10314;DHT22;5202;49.138;10.090;2023-05-31T12:09:43;25.90;42.00
10314;DHT22;5202;49.138;10.090;2023-05-31T12:12:12;26.00;43.70
10314;DHT22;5202;49.138;10.090;2023-05-31T12:14:49;26.10;41.10
10314;DHT22;5202;49.138;10.090;2023-05-31T12:17:18;26.30;38.20
10314;DHT22;5202;49.138;10.090;2023-05-31T12:19:48;26.30;37.30
10314;DHT22;5202;49.138;10.090;2023-05-31T12:22:17;26.30;40.20
10314;DHT22;5202;49.138;10.090;2023-05-31T12:24:49;26.50;43.60
10314;DHT22;5202;49.138;10.090;2023-05-31T12:27:19;26.50;40.10
10314;DHT22;5202;49.138;10.090;2023-05-31T12:30:03;26.60;40.10
10314;DHT22;5202;49.138;10.090;2023-05-31T12:32:33;26.60;38.40
10314;DHT22;5202;49.138;10.090;2023-05-31T12:35:06;26.60;36.80
10314;DHT22;5202;49.138;10.090;2023-05-31T12:37:40;26.60;39.00
10314;DHT22;5202;49.138;10.090;2023-05-31T12:40:10;26.60;38.10
10314;DHT22;5202;49.138;10.090;2023-05-31T12:42:39;26.70;37.80
10314;DHT22;5202;49.138;10.090;2023-05-31T12:45:09;26.70;38.60
10314;DHT22;5202;49.138;10.090;2023-05-31T12:47:38;26.70;40.40
10314;DHT22;5202;49.138;10.090;2023-05-31T12:50:07;26.80;38.10
10314;DHT22;5202;49.138;10.090;2023-05-31T12:52:37;27.00;39.20
10314;DHT22;5202;49.138;10.090;2023-05-31T12:55:08;27.00;39.10
10314;DHT22;5202;49.138;10.090;2023-05-31T12:57:37;27.00;37.10
10314;DHT22;5202;49.138;10.090;2023-05-31T13:00:08;26.90;38.10
10314;DHT22;5202;49.138;10.090;2023-05-31T13:02:39;26.90;37.80
10314;DHT22;5202;49.138;10.090;2023-05-31T13:05:08;27.20;39.40
10314;DHT22;5202;49.138;10.090;2023-05-31T13:07:37;27.40;36.70
10314;DHT22;5202;49.138;10.090;2023-05-31T13:10:08;27.50;36.30
10314;DHT22;5202;49.138;10.090;2023-05-31T13:12:38;27.30;35.10
10314;DHT22;5202;49.138;10.090;2023-05-31T13:15:08;27.30;39.10
10314;DHT22;5202;49.138;10.090;2023-05-31T13:17:37;27.40;37.60
10314;DHT22;5202;49.138;10.090;2023-05-31T13:20:06;27.50;39.90
10314;DHT22;5202;49.138;10.090;2023-05-31T13:22:39;27.80;40.50
10314;DHT22;5202;49.138;10.090;2023-05-31T13:25:09;27.80;39.30
10314;DHT22;5202;49.138;10.090;2023-05-31T13:27:37;27.90;39.70
10314;DHT22;5202;49.138;10.090;2023-05-31T13:30:08;28.00;37.60
10314;DHT22;5202;49.138;10.090;2023-05-31T13:32:37;28.10;37.70
10314;DHT22;5202;49.138;10.090;2023-05-31T13:35:06;28.00;39.20
10314;DHT22;5202;49.138;10.090;2023-05-31T13:37:36;28.20;38.30
10314;DHT22;5202;49.138;10.090;2023-05-31T13:40:06;28.30;37.70
10314;DHT22;5202;49.138;10.090;2023-05-31T13:42:36;28.30;35.20
10314;DHT22;5202;49.138;10.090;2023-05-31T13:45:05;28.00;35.50
10314;DHT22;5202;49.138;10.090;2023-05-31T13:47:34;28.00;37.10
10314;DHT22;5202;49.138;10.090;2023-05-31T13:50:04;28.00;36.00
10314;DHT22;5202;49.138;10.090;2023-05-31T13:52:32;28.00;36.20
10314;DHT22;5202;49.138;10.090;2023-05-31T13:55:01;28.10;38.30
10314;DHT22;5202;49.138;10.090;2023-05-31T13:57:29;28.10;37.10
10314;DHT22;5202;49.138;10.090;2023-05-31T13:59:59;28.10;38.20
10314;DHT22;5202;49.138;10.090;2023-05-31T14:02:36;27.80;37.40
10314;DHT22;5202;49.138;10.090;2023-05-31T14:05:33;27.80;38.40
10314;DHT22;5202;49.138;10.090;2023-05-31T14:08:02;27.80;40.70
10314;DHT22;5202;49.138;10.090;2023-05-31T14:10:31;28.00;38.90
10314;DHT22;5202;49.138;10.090;2023-05-31T14:12:59;28.00;40.50
10314;DHT22;5202;49.138;10.090;2023-05-31T14:15:29;28.10;38.10
10314;DHT22;5202;49.138;10.090;2023-05-31T14:17:57;27.90;38.70
10314;DHT22;5202;49.138;10.090;2023-05-31T14:20:26;27.90;39.80
10314;DHT22;5202;49.138;10.090;2023-05-31T14:22:54;27.80;39.00
10314;DHT22;5202;49.138;10.090;2023-05-31T14:25:22;27.90;39.70
10314;DHT22;5202;49.138;10.090;2023-05-31T14:27:51;27.90;39.70
10314;DHT22;5202;49.138;10.090;2023-05-31T14:30:19;27.90;38.80
10314;DHT22;5202;49.138;10.090;2023-05-31T14:32:49;28.00;39.40
10314;DHT22;5202;49.138;10.090;2023-05-31T14:35:20;27.90;38.40
10314;DHT22;5202;49.138;10.090;2023-05-31T14:37:49;27.60;38.60
10314;DHT22;5202;49.138;10.090;2023-05-31T14:40:32;27.40;38.60
10314;DHT22;5202;49.138;10.090;2023-05-31T14:43:01;27.10;39.80
10314;DHT22;5202;49.138;10.090;2023-05-31T14:45:29;27.10;40.10
10314;DHT22;5202;49.138;10.090;2023-05-31T14:47:59;27.30;40.90
10314;DHT22;5202;49.138;10.090;2023-05-31T14:50:27;27.30;39.30
10314;DHT22;5202;49.138;10.090;2023-05-31T14:52:55;27.20;39.50
10314;DHT22;5202;49.138;10.090;2023-05-31T14:55:24;27.10;38.30
10314;DHT22;5202;49.138;10.090;2023-05-31T14:57:52;27.10;39.40
10314;DHT22;5202;49.138;10.090;2023-05-31T15:00:21;27.30;39.70
10314;DHT22;5202;49.138;10.090;2023-05-31T15:02:49;27.40;39.30
10314;DHT22;5202;49.138;10.090;2023-05-31T15:05:19;27.30;39.20
10314;DHT22;5202;49.138;10.090;2023-05-31T15:07:47;27.20;38.50
10314;DHT22;5202;49.138;10.090;2023-05-31T15:10:15;27.20;39.00
10314;DHT22;5202;49.138;10.090;2023-05-31T15:12:44;27.10;38.70
10314;DHT22;5202;49.138;10.090;2023-05-31T15:15:14;27.00;38.80
10314;DHT22;5202;49.138;10.090;2023-05-31T15:17:42;26.90;38.30
10314;DHT22;5202;49.138;10.090;2023-05-31T15:20:13;27.00;39.10
10314;DHT22;5202;49.138;10.090;2023-05-31T15:22:43;26.90;39.60
10314;DHT22;5202;49.138;10.090;2023-05-31T15:25:11;26.80;40.20
10314;DHT22;5202;49.138;10.090;2023-05-31T15:27:41;26.70;38.70
10314;DHT22;5202;49.138;10.090;2023-05-31T15:30:10;26.60;39.50
10314;DHT22;5202;49.138;10.090;2023-05-31T15:32:38;26.60;38.70
10314;DHT22;5202;49.138;10.090;2023-05-31T15:35:07;26.60;39.40
10314;DHT22;5202;49.138;10.090;2023-05-31T15:37:36;26.50;39.30
10314;DHT22;5202;49.138;10.090;2023-05-31T15:40:07;26.40;39.20
10314;DHT22;5202;49.138;10.090;2023-05-31T15:42:36;26.40;40.40
10314;DHT22;5202;49.138;10.090;2023-05-31T15:45:12;26.50;38.80
10314;DHT22;5202;49.138;10.090;2023-05-31T15:47:40;26.30;38.80
10314;DHT22;5202;49.138;10.090;2023-05-31T15:50:09;26.20;39.40
10314;DHT22;5202;49.138;10.090;2023-05-31T15:52:38;26.20;40.00